EGJA/ACI METAR and TAF weather

Enter ICAO airport designator
Station Type Date Time Source
EGJA METAR 2018/12/18 11:20 UTC NOAA

EGJA 181120Z 17033G44KT 9999 -RA FEW012 BKN048 09/06 Q1006


Station Type Date Time Source
EGJA Decoded METAR 2018/12/18 11:20 UTC NOAA

Alderney / Channel Island, United Kingdom (EGJA) 49-43N 002-12W
Dec 18, 2018 - 06:20 AM EST / 2018.12.18 1120 UTC
Wind: from the S (170 degrees) at 38 MPH (33 KT) gusting to 51 MPH (44 KT):0
Visibility: greater than 7 mile(s):0
Sky conditions: mostly cloudy
Weather: light rain
Temperature: 48 F (9 C)
Dew Point: 42 F (6 C)
Relative Humidity: 81%
Pressure (altimeter): 29.71 in. Hg (1006 hPa)
ob: EGJA 181120Z 17033G44KT 9999 -RA FEW012 BKN048 09/06 Q1006
cycle: 11

Station Type Date Time Source
EGJA TAF UTC NOAA

Error!


Example: see airport list